createdAt,value
2022-08-16T00:02:30.543Z,8.65
2022-08-16T00:04:59.623Z,7.60
2022-08-16T00:07:29.428Z,9.60
2022-08-16T00:09:59.472Z,12.15
2022-08-16T00:12:28.629Z,7.70
2022-08-16T00:14:57.242Z,7.18
2022-08-16T00:17:25.259Z,8.65
2022-08-16T00:19:54.979Z,8.35
2022-08-16T00:22:24.925Z,9.27
2022-08-16T00:24:53.566Z,12.77
2022-08-16T00:27:21.747Z,8.45
2022-08-16T00:30:00.900Z,8.30
2022-08-16T00:32:35.532Z,9.63
2022-08-16T00:35:02.220Z,9.93
2022-08-16T00:37:56.608Z,8.25
2022-08-16T00:40:36.512Z,10.35
2022-08-16T00:43:19.043Z,9.23
2022-08-16T00:46:01.263Z,8.90
2022-08-16T00:48:48.828Z,12.35
2022-08-16T00:51:17.977Z,11.10
2022-08-16T00:53:46.504Z,13.70
2022-08-16T00:56:56.950Z,12.20
2022-08-16T00:59:04.559Z,10.10
2022-08-16T01:01:32.765Z,15.18
2022-08-16T01:04:05.376Z,10.75
2022-08-16T01:06:39.737Z,10.77
2022-08-16T01:09:08.488Z,9.13
2022-08-16T01:11:37.562Z,13.85
2022-08-16T01:14:25.107Z,12.65
2022-08-16T01:16:58.081Z,11.80
2022-08-16T01:19:30.644Z,11.80
2022-08-16T01:22:49.995Z,11.75
2022-08-16T01:25:34.057Z,12.90
2022-08-16T01:28:05.270Z,12.18
2022-08-16T01:30:39.790Z,12.30
2022-08-16T01:33:17.483Z,12.98
2022-08-16T01:35:53.228Z,11.32
2022-08-16T01:38:32.926Z,9.63
2022-08-16T01:41:10.663Z,9.43
2022-08-16T01:43:39.321Z,9.70
2022-08-16T01:46:38.466Z,10.07
2022-08-16T01:48:58.167Z,9.43
2022-08-16T01:51:25.964Z,9.20
2022-08-16T01:53:55.255Z,8.52
2022-08-16T01:56:24.817Z,10.23
2022-08-16T01:58:55.051Z,8.98
2022-08-16T02:01:22.310Z,7.20
2022-08-16T02:03:50.466Z,9.77
2022-08-16T02:06:33.601Z,10.30
2022-08-16T02:09:01.290Z,9.07
2022-08-16T02:11:48.717Z,9.73
2022-08-16T02:14:18.424Z,8.33
2022-08-16T02:16:48.723Z,10.50
2022-08-16T02:19:17.613Z,9.55
2022-08-16T02:22:08.281Z,10.82
2022-08-16T02:24:41.269Z,9.10
2022-08-16T02:27:10.402Z,13.20
2022-08-16T02:29:38.200Z,10.55
2022-08-16T02:32:49.263Z,12.32
2022-08-16T02:34:56.730Z,13.13
2022-08-16T02:37:23.360Z,12.23
2022-08-16T02:39:54.097Z,11.82
2022-08-16T02:42:21.332Z,10.30
2022-08-16T02:44:48.998Z,11.00
2022-08-16T02:47:25.088Z,9.93
2022-08-16T02:49:59.146Z,9.88
2022-08-16T02:52:39.605Z,9.65
2022-08-16T02:55:10.968Z,9.15
2022-08-16T02:57:42.346Z,14.75
2022-08-16T03:00:34.080Z,11.25
2022-08-16T03:03:01.402Z,10.52
2022-08-16T03:05:31.746Z,13.18
2022-08-16T03:08:00.025Z,12.02
2022-08-16T03:10:33.360Z,10.23
2022-08-16T03:13:00.586Z,13.40
2022-08-16T03:15:27.885Z,11.27
2022-08-16T03:17:55.914Z,8.97
2022-08-16T03:20:32.520Z,9.05
2022-08-16T03:22:59.677Z,9.45
2022-08-16T03:25:40.757Z,10.57
2022-08-16T03:28:11.149Z,9.90
2022-08-16T03:30:38.301Z,8.73
2022-08-16T03:33:05.576Z,9.07
2022-08-16T03:35:40.159Z,11.32
2022-08-16T03:38:32.851Z,10.10
2022-08-16T03:40:57.350Z,11.35
2022-08-16T03:43:51.224Z,10.00
2022-08-16T03:46:11.957Z,10.63
2022-08-16T03:48:40.587Z,9.45
2022-08-16T03:51:12.153Z,8.85
2022-08-16T03:53:40.411Z,10.23
2022-08-16T03:56:19.830Z,13.05
2022-08-16T03:58:48.502Z,9.98
2022-08-16T04:01:18.183Z,8.93
2022-08-16T04:03:44.785Z,7.93
2022-08-16T04:06:11.406Z,7.55
2022-08-16T04:08:39.639Z,9.02
2022-08-16T04:11:06.802Z,9.27
2022-08-16T04:14:00.709Z,10.30
2022-08-16T04:16:27.401Z,9.25
2022-08-16T04:19:02.658Z,7.35
2022-08-16T04:21:45.897Z,8.70
2022-08-16T04:24:14.627Z,7.35
2022-08-16T04:26:46.044Z,8.07
2022-08-16T04:29:16.972Z,8.30
2022-08-16T04:31:56.836Z,7.20
2022-08-16T04:34:31.312Z,7.82
2022-08-16T04:37:01.125Z,8.07
2022-08-16T04:39:45.725Z,8.63
2022-08-16T04:42:14.821Z,7.78
2022-08-16T04:44:53.410Z,8.85
2022-08-16T04:47:24.282Z,11.55
2022-08-16T04:49:52.367Z,10.93
2022-08-16T04:52:33.719Z,9.40
2022-08-16T04:55:06.210Z,10.90
2022-08-16T04:57:33.077Z,8.82
2022-08-16T05:00:32.136Z,8.77
2022-08-16T05:02:54.834Z,13.05
2022-08-16T05:05:23.646Z,12.38
2022-08-16T05:07:59.493Z,11.52
2022-08-16T05:10:28.376Z,13.57
2022-08-16T05:12:57.410Z,11.82
2022-08-16T05:15:24.485Z,10.27
2022-08-16T05:17:58.647Z,10.23
2022-08-16T05:20:39.349Z,10.40
2022-08-16T05:23:15.035Z,9.15
2022-08-16T05:25:48.305Z,12.63
2022-08-16T05:28:16.506Z,10.13
2022-08-16T05:30:43.710Z,9.00
2022-08-16T05:33:16.778Z,8.02
2022-08-16T05:35:55.181Z,8.50
2022-08-16T05:38:32.907Z,8.63
2022-08-16T05:41:04.032Z,7.22
2022-08-16T05:43:31.988Z,7.47
2022-08-16T05:46:28.786Z,8.05
2022-08-16T05:49:09.116Z,8.05
2022-08-16T05:51:38.494Z,7.38
2022-08-16T05:54:09.717Z,6.93
2022-08-16T05:56:38.601Z,8.15
2022-08-16T05:59:06.691Z,8.52
2022-08-16T06:01:38.022Z,8.00
2022-08-16T06:04:12.907Z,9.00
2022-08-16T06:06:56.610Z,11.45
2022-08-16T06:09:42.816Z,7.38
2022-08-16T06:12:27.061Z,7.60
2022-08-16T06:15:07.777Z,7.45
2022-08-16T06:17:42.901Z,7.95
2022-08-16T06:20:14.827Z,7.13
2022-08-16T06:22:57.663Z,5.97
2022-08-16T06:25:35.959Z,7.30
2022-08-16T06:28:08.358Z,6.72
2022-08-16T06:30:35.797Z,5.88
2022-08-16T06:33:12.874Z,5.97
2022-08-16T06:35:47.771Z,5.80
2022-08-16T06:38:33.814Z,6.03
2022-08-16T06:41:05.720Z,6.05
2022-08-16T06:43:33.333Z,5.57
2022-08-16T06:46:03.866Z,6.00
2022-08-16T06:48:33.058Z,6.80
2022-08-16T06:51:04.562Z,7.30
2022-08-16T06:53:35.789Z,6.70
2022-08-16T06:56:14.830Z,6.72
2022-08-16T06:58:51.156Z,6.15
2022-08-16T07:01:22.725Z,5.90
2022-08-16T07:03:54.902Z,7.88
2022-08-16T07:06:26.715Z,6.65
2022-08-16T07:08:54.721Z,6.35
2022-08-16T07:11:45.576Z,5.95
2022-08-16T07:14:26.405Z,5.30
2022-08-16T07:16:58.343Z,5.68
2022-08-16T07:20:01.512Z,6.80
2022-08-16T07:25:01.900Z,6.18
2022-08-16T07:27:29.102Z,6.43
2022-08-16T07:30:00.756Z,6.30
2022-08-16T07:32:29.539Z,5.63
2022-08-16T07:34:58.304Z,5.20
2022-08-16T07:37:25.017Z,6.05
2022-08-16T07:39:52.579Z,5.75
2022-08-16T07:42:28.348Z,7.00
2022-08-16T07:45:01.604Z,8.07
2022-08-16T07:47:31.473Z,8.13
2022-08-16T07:49:59.741Z,7.63
2022-08-16T07:52:29.897Z,6.70
2022-08-16T07:54:57.379Z,6.15
2022-08-16T07:57:25.403Z,6.93
2022-08-16T07:59:53.712Z,5.00
2022-08-16T08:02:23.945Z,9.63
2022-08-16T08:04:55.293Z,9.30
2022-08-16T08:07:22.508Z,8.40
2022-08-16T08:09:58.227Z,8.60
2022-08-16T08:12:32.126Z,7.75
2022-08-16T08:15:04.271Z,9.05
2022-08-16T08:22:37.262Z,5.57
2022-08-16T08:25:07.541Z,6.50
2022-08-16T08:27:36.967Z,8.82
2022-08-16T08:30:50.074Z,7.88
2022-08-16T08:32:59.673Z,6.82
2022-08-16T08:35:28.507Z,5.72
2022-08-16T08:37:56.404Z,7.22
2022-08-16T08:40:26.834Z,9.50
2022-08-16T08:43:00.585Z,6.28
2022-08-16T08:45:46.940Z,10.30
2022-08-16T08:48:33.725Z,7.05
2022-08-16T08:51:04.875Z,7.25
2022-08-16T08:53:33.674Z,7.97
2022-08-16T08:56:01.432Z,7.00
2022-08-16T08:58:54.784Z,8.35
2022-08-16T09:01:36.958Z,7.20
2022-08-16T09:04:14.857Z,6.72
2022-08-16T09:06:44.495Z,7.38
2022-08-16T09:09:16.984Z,8.00
2022-08-16T09:11:49.631Z,8.50
2022-08-16T09:14:24.125Z,8.38
2022-08-16T09:17:03.339Z,6.80
2022-08-16T09:19:37.303Z,7.90
2022-08-16T09:22:20.907Z,9.60
2022-08-16T09:24:52.633Z,9.95
2022-08-16T09:27:21.619Z,6.72
2022-08-16T09:29:59.924Z,6.18
2022-08-16T09:32:30.529Z,5.53
2022-08-16T09:34:59.886Z,7.72
2022-08-16T09:37:36.895Z,6.75
2022-08-16T09:40:32.233Z,5.20
2022-08-16T09:42:56.395Z,8.50
2022-08-16T09:45:28.637Z,7.38
2022-08-16T09:47:56.617Z,8.70
2022-08-16T09:50:37.092Z,7.38
2022-08-16T09:53:15.091Z,6.22
2022-08-16T09:55:46.450Z,5.37
2022-08-16T09:58:40.429Z,6.20
2022-08-16T10:01:04.546Z,4.55
2022-08-16T10:03:31.715Z,4.90
2022-08-16T10:05:58.628Z,5.43
2022-08-16T10:08:27.466Z,4.85
2022-08-16T10:13:41.549Z,6.28
2022-08-16T10:19:06.619Z,5.40
2022-08-16T10:21:32.062Z,5.55
2022-08-16T10:23:58.953Z,3.70
2022-08-16T10:27:16.553Z,4.05
2022-08-16T10:29:12.852Z,3.97
2022-08-16T10:31:53.545Z,4.75
2022-08-16T10:34:30.816Z,3.72
2022-08-16T10:37:02.211Z,4.20
2022-08-16T10:39:40.445Z,3.88
2022-08-16T10:42:09.440Z,4.78
2022-08-16T10:44:36.535Z,4.60
2022-08-16T10:47:03.588Z,5.10
2022-08-16T10:49:30.783Z,4.57
2022-08-16T10:52:03.173Z,3.70
2022-08-16T10:55:40.390Z,3.80
2022-08-16T10:57:32.941Z,3.80
2022-08-16T11:00:00.068Z,4.35
2022-08-16T11:05:16.381Z,3.05
2022-08-16T11:07:52.238Z,6.00
2022-08-16T11:16:26.900Z,3.85
2022-08-16T11:19:06.105Z,4.85
2022-08-16T11:24:41.515Z,4.00
2022-08-16T11:27:20.321Z,5.15
2022-08-16T11:32:19.990Z,3.13
2022-08-16T11:35:10.487Z,4.13
2022-08-16T11:38:24.094Z,3.47
2022-08-16T11:40:32.799Z,3.72
2022-08-16T11:43:01.421Z,3.45
2022-08-16T11:45:33.748Z,3.42
2022-08-16T11:48:03.006Z,3.80
2022-08-16T11:50:33.919Z,3.50
2022-08-16T11:53:02.255Z,3.55
2022-08-16T11:55:30.172Z,3.90
2022-08-16T11:57:57.539Z,4.10
2022-08-16T12:00:43.487Z,3.95
2022-08-16T12:03:11.404Z,4.88
2022-08-16T12:05:39.635Z,4.32
2022-08-16T12:08:07.644Z,4.10
2022-08-16T12:10:37.932Z,3.97
2022-08-16T12:13:10.285Z,3.80
2022-08-16T12:15:37.802Z,3.65
2022-08-16T12:18:06.942Z,3.90
2022-08-16T12:20:38.502Z,3.53
2022-08-16T12:23:06.629Z,3.53
2022-08-16T12:25:35.038Z,3.53
2022-08-16T12:28:02.854Z,3.70
2022-08-16T12:30:38.914Z,3.72
2022-08-16T12:33:07.807Z,4.00
2022-08-16T12:35:36.862Z,4.13
2022-08-16T12:38:08.833Z,4.22
2022-08-16T12:40:53.262Z,4.03
2022-08-16T12:43:25.646Z,4.10
2022-08-16T12:45:55.242Z,4.22
2022-08-16T12:48:46.456Z,4.25
2022-08-16T12:51:22.116Z,3.50
2022-08-16T12:53:52.920Z,4.05
2022-08-16T12:56:21.962Z,4.55
2022-08-16T12:58:53.547Z,3.83
2022-08-16T13:01:26.832Z,4.15
2022-08-16T13:04:12.213Z,3.83
2022-08-16T13:06:45.676Z,3.63
2022-08-16T13:09:23.724Z,3.20
2022-08-16T13:12:04.406Z,4.07
2022-08-16T13:14:36.071Z,3.53
2022-08-16T13:17:06.717Z,4.00
2022-08-16T13:20:03.322Z,3.67
2022-08-16T13:22:22.072Z,4.10
2022-08-16T13:24:50.609Z,3.63
2022-08-16T13:27:18.039Z,3.65
2022-08-16T13:29:47.405Z,3.78
2022-08-16T13:32:39.995Z,3.83
2022-08-16T13:35:11.728Z,3.78
2022-08-16T13:37:38.603Z,3.53
2022-08-16T13:40:09.265Z,3.95
2022-08-16T13:42:47.504Z,3.42
2022-08-16T13:45:15.685Z,3.90
2022-08-16T13:47:42.605Z,3.72
2022-08-16T13:50:10.912Z,3.83
2022-08-16T13:52:39.835Z,3.42
2022-08-16T13:55:17.854Z,3.10
2022-08-16T13:58:34.191Z,3.17
2022-08-16T14:00:31.587Z,3.17
2022-08-16T14:02:59.242Z,3.35
2022-08-16T14:05:26.731Z,3.58
2022-08-16T14:07:54.013Z,3.40
2022-08-16T14:10:21.194Z,3.70
2022-08-16T14:12:48.096Z,3.60
2022-08-16T14:15:16.017Z,3.00
2022-08-16T14:18:15.827Z,3.63
2022-08-16T14:20:29.504Z,3.57
2022-08-16T14:22:56.243Z,3.90
2022-08-16T14:25:26.942Z,3.45
2022-08-16T14:27:54.573Z,3.17
2022-08-16T14:30:22.056Z,3.60
2022-08-16T14:32:50.949Z,3.37
2022-08-16T14:35:36.535Z,3.42
2022-08-16T14:38:10.249Z,3.85
2022-08-16T14:40:42.608Z,3.30
2022-08-16T14:43:15.600Z,2.95
2022-08-16T14:45:42.597Z,3.20
2022-08-16T14:48:10.433Z,3.58
2022-08-16T14:50:37.226Z,3.20
2022-08-16T14:53:08.745Z,3.35
2022-08-16T14:55:37.385Z,3.20
2022-08-16T14:58:18.853Z,3.28
2022-08-16T15:00:47.793Z,2.88
2022-08-16T15:03:18.552Z,3.22
2022-08-16T15:05:48.486Z,3.42
2022-08-16T15:08:17.120Z,3.90
2022-08-16T15:10:47.013Z,3.17
2022-08-16T15:13:14.014Z,3.80
2022-08-16T15:15:43.434Z,3.85
2022-08-16T15:18:12.057Z,3.55
2022-08-16T15:20:39.616Z,3.70
2022-08-16T15:25:44.906Z,3.47
2022-08-16T15:28:30.508Z,3.53
2022-08-16T15:31:03.817Z,3.83
2022-08-16T15:33:35.904Z,3.72
2022-08-16T15:36:08.738Z,3.90
2022-08-16T15:39:03.873Z,3.83
2022-08-16T15:41:49.526Z,3.22
2022-08-16T15:44:22.364Z,3.22
2022-08-16T15:46:55.028Z,3.80
2022-08-16T15:49:38.053Z,3.65
2022-08-16T15:52:20.725Z,3.65
2022-08-16T15:54:55.346Z,3.03
2022-08-16T15:57:25.948Z,3.13
2022-08-16T15:59:55.989Z,3.75
2022-08-16T16:02:31.129Z,4.30
2022-08-16T16:05:04.446Z,4.13
2022-08-16T16:07:33.260Z,4.07
2022-08-16T16:10:02.737Z,3.55
2022-08-16T16:12:51.145Z,4.20
2022-08-16T16:15:18.391Z,4.13
2022-08-16T16:17:51.286Z,3.88
2022-08-16T16:20:21.203Z,4.05
2022-08-16T16:22:49.851Z,4.25
2022-08-16T16:25:17.253Z,4.15
2022-08-16T16:27:45.336Z,3.63
2022-08-16T16:30:37.481Z,4.07
2022-08-16T16:33:01.222Z,4.65
2022-08-16T16:35:32.551Z,4.90
2022-08-16T16:37:59.949Z,4.53
2022-08-16T16:40:32.715Z,3.97
2022-08-16T16:43:00.881Z,4.57
2022-08-16T16:45:33.534Z,4.07
2022-08-16T16:48:11.736Z,4.32
2022-08-16T16:50:40.552Z,3.63
2022-08-16T16:53:17.640Z,4.60
2022-08-16T16:55:51.604Z,4.38
2022-08-16T16:58:43.541Z,4.28
2022-08-16T17:01:20.960Z,4.03
2022-08-16T17:04:19.186Z,3.55
2022-08-16T17:06:53.514Z,3.70
2022-08-16T17:09:24.244Z,3.85
2022-08-16T17:11:55.493Z,3.85
2022-08-16T17:14:33.710Z,3.67
2022-08-16T17:17:11.731Z,3.70
2022-08-16T17:19:41.547Z,3.42
2022-08-16T17:22:14.760Z,3.42
2022-08-16T17:24:44.985Z,3.30
2022-08-16T17:27:12.264Z,3.80
2022-08-16T17:29:46.548Z,3.83
2022-08-16T17:32:44.567Z,3.47
2022-08-16T17:35:10.859Z,3.50
2022-08-16T17:37:50.947Z,3.28
2022-08-16T17:40:40.670Z,3.08
2022-08-16T17:43:05.831Z,2.78
2022-08-16T17:45:33.253Z,2.92
2022-08-16T17:47:59.874Z,3.20
2022-08-16T17:50:28.439Z,3.00
2022-08-16T17:52:56.290Z,3.63
2022-08-16T17:55:28.894Z,3.08
2022-08-16T17:57:55.917Z,3.20
2022-08-16T18:00:23.751Z,3.60
2022-08-16T18:02:51.808Z,3.40
2022-08-16T18:05:20.297Z,3.03
2022-08-16T18:07:47.420Z,3.25
2022-08-16T18:10:30.389Z,3.20
2022-08-16T18:13:01.220Z,3.03
2022-08-16T18:15:28.229Z,3.08
2022-08-16T18:17:54.901Z,3.03
2022-08-16T18:20:41.917Z,3.00
2022-08-16T18:23:10.078Z,3.07
2022-08-16T18:25:42.721Z,3.20
2022-08-16T18:28:09.347Z,3.15
2022-08-16T18:30:36.072Z,3.22
2022-08-16T18:33:02.814Z,3.28
2022-08-16T18:35:29.465Z,3.10
2022-08-16T18:37:56.320Z,3.10
2022-08-16T18:40:22.928Z,3.55
2022-08-16T18:43:10.381Z,3.25
2022-08-16T18:45:42.648Z,3.38
2022-08-16T18:48:10.224Z,3.78
2022-08-16T18:51:04.215Z,3.13
2022-08-16T18:53:28.409Z,3.15
2022-08-16T18:55:57.665Z,3.50
2022-08-16T18:58:25.110Z,3.65
2022-08-16T19:00:56.653Z,3.00
2022-08-16T19:03:26.897Z,3.00
2022-08-16T19:05:59.920Z,3.17
2022-08-16T19:08:27.079Z,3.30
2022-08-16T19:10:54.023Z,3.30
2022-08-16T19:13:26.442Z,3.70
2022-08-16T19:15:55.365Z,4.20
2022-08-16T19:18:22.236Z,3.63
2022-08-16T19:20:49.470Z,3.65
2022-08-16T19:23:21.196Z,4.32
2022-08-16T19:25:52.974Z,3.88
2022-08-16T19:28:51.959Z,3.47
2022-08-16T19:31:23.612Z,3.75
2022-08-16T19:33:55.360Z,4.05
2022-08-16T19:36:35.305Z,3.50
2022-08-16T19:39:06.608Z,3.80
2022-08-16T19:41:45.867Z,3.80
2022-08-16T19:44:13.005Z,4.00
2022-08-16T19:46:44.829Z,4.07
2022-08-16T19:49:16.380Z,3.90
2022-08-16T19:51:43.537Z,3.70
2022-08-16T19:54:10.125Z,4.22
2022-08-16T19:56:36.756Z,3.70
2022-08-16T19:59:21.044Z,3.97
2022-08-16T20:01:51.146Z,4.47
2022-08-16T20:04:18.094Z,4.32
2022-08-16T20:06:44.680Z,4.72
2022-08-16T20:09:15.381Z,4.82
2022-08-16T20:11:45.892Z,5.00
2022-08-16T20:14:19.252Z,5.00
2022-08-16T20:16:51.835Z,4.30
2022-08-16T20:19:18.895Z,3.90
2022-08-16T20:21:45.520Z,3.95
2022-08-16T20:24:32.816Z,3.70
2022-08-16T20:26:59.193Z,4.22
2022-08-16T20:29:27.476Z,4.55
2022-08-16T20:31:54.096Z,4.45
2022-08-16T20:34:20.689Z,4.20
2022-08-16T20:36:47.315Z,4.50
2022-08-16T20:39:13.924Z,4.63
2022-08-16T20:41:43.683Z,4.07
2022-08-16T20:44:10.888Z,5.10
2022-08-16T20:46:39.763Z,4.45
2022-08-16T20:49:09.216Z,4.80
2022-08-16T20:51:46.775Z,5.05
2022-08-16T20:54:14.822Z,4.25
2022-08-16T20:56:41.560Z,4.30
2022-08-16T20:59:08.158Z,4.80
2022-08-16T21:01:47.016Z,4.60
2022-08-16T21:04:19.307Z,4.47
2022-08-16T21:06:53.713Z,4.70
2022-08-16T21:09:25.674Z,4.75
2022-08-16T21:11:53.877Z,4.40
2022-08-16T21:14:20.557Z,4.45
2022-08-16T21:16:47.147Z,4.00
2022-08-16T21:19:14.035Z,4.20
2022-08-16T21:21:40.673Z,4.28
2022-08-16T21:24:07.337Z,4.03
2022-08-16T21:26:38.834Z,4.35
2022-08-16T21:29:07.741Z,3.85
2022-08-16T21:31:38.238Z,4.10
2022-08-16T21:34:04.808Z,3.97
2022-08-16T21:36:35.806Z,3.85
2022-08-16T21:39:05.638Z,3.97
2022-08-16T21:41:33.103Z,3.67
2022-08-16T21:43:59.687Z,4.32
2022-08-16T21:46:26.275Z,4.22
2022-08-16T21:48:52.884Z,4.43
2022-08-16T21:51:19.556Z,4.15
2022-08-16T21:53:46.155Z,4.40
2022-08-16T21:56:17.057Z,5.22
2022-08-16T21:58:45.324Z,4.50
2022-08-16T22:01:11.988Z,4.40
2022-08-16T22:03:38.592Z,4.85
2022-08-16T22:06:13.456Z,3.97
2022-08-16T22:08:51.063Z,4.47
2022-08-16T22:11:23.231Z,4.78
2022-08-16T22:13:57.252Z,4.15
2022-08-16T22:16:27.241Z,4.05
2022-08-16T22:18:53.973Z,4.93
2022-08-16T22:21:20.666Z,3.95
2022-08-16T22:23:55.217Z,4.68
2022-08-16T22:26:31.528Z,3.97
2022-08-16T22:29:10.615Z,4.43
2022-08-16T22:31:39.110Z,4.30
2022-08-16T22:34:06.684Z,4.30
2022-08-16T22:36:33.798Z,4.13
2022-08-16T22:39:03.693Z,4.07
2022-08-16T22:41:34.333Z,4.65
2022-08-16T22:44:02.271Z,4.38
2022-08-16T22:46:30.307Z,4.50
2022-08-16T22:48:57.516Z,4.28
2022-08-16T22:51:25.733Z,4.63
2022-08-16T22:53:53.097Z,4.90
2022-08-16T22:56:20.520Z,4.45
2022-08-16T22:58:47.629Z,4.10
2022-08-16T23:01:15.944Z,4.13
2022-08-16T23:03:43.208Z,4.28
2022-08-16T23:06:10.790Z,3.92
2022-08-16T23:08:40.925Z,4.77
2022-08-16T23:11:20.070Z,4.45
2022-08-16T23:13:50.074Z,4.35
2022-08-16T23:16:32.807Z,4.72
2022-08-16T23:19:08.583Z,3.88
2022-08-16T23:21:37.340Z,4.35
2022-08-16T23:24:04.829Z,4.38
2022-08-16T23:26:44.106Z,4.50
2022-08-16T23:29:24.714Z,4.95
2022-08-16T23:32:10.884Z,4.63
2022-08-16T23:34:37.524Z,4.63
2022-08-16T23:37:05.023Z,4.90
2022-08-16T23:39:31.703Z,4.57
2022-08-16T23:41:58.614Z,5.07
2022-08-16T23:44:56.003Z,5.15
2022-08-16T23:47:12.021Z,5.30
2022-08-16T23:50:00.316Z,4.78
2022-08-16T23:52:54.856Z,4.95
2022-08-16T23:55:12.876Z,4.65
2022-08-16T23:57:39.504Z,4.97
